createdAt,value
2022-11-06T00:03:45.635Z,7.69
2022-11-06T00:09:21.942Z,7.66
2022-11-06T00:14:53.535Z,7.61
2022-11-06T00:20:24.977Z,7.6
2022-11-06T00:25:57.081Z,7.62
2022-11-06T00:31:28.392Z,7.57
2022-11-06T00:37:00.152Z,7.56
2022-11-06T00:42:32.607Z,7.51
2022-11-06T00:48:03.571Z,7.55
2022-11-06T00:53:35.327Z,7.56
2022-11-06T00:59:07.393Z,7.57
2022-11-06T01:04:38.926Z,7.5
2022-11-06T01:10:14.867Z,7.52
2022-11-06T01:15:46.530Z,7.42
2022-11-06T01:21:19.209Z,7.41
2022-11-06T01:27:12.449Z,7.4
2022-11-06T01:32:22.007Z,7.34
2022-11-06T01:37:53.731Z,7.25
2022-11-06T01:43:25.416Z,7.27
2022-11-06T01:48:56.960Z,7.09
2022-11-06T01:54:29.668Z,7.08
2022-11-06T02:00:01.476Z,7.11
2022-11-06T02:06:03.942Z,7.05
2022-11-06T02:11:09.227Z,7.09
2022-11-06T02:16:41.057Z,7.09
2022-11-06T02:22:12.983Z,7.13
2022-11-06T02:27:44.616Z,6.99
2022-11-06T02:33:16.079Z,6.81
2022-11-06T02:38:47.827Z,6.75
2022-11-06T02:44:19.531Z,6.63
2022-11-06T02:49:51.515Z,6.29
2022-11-06T02:55:23.284Z,6.42
2022-11-06T03:00:54.998Z,6.42
2022-11-06T03:06:26.424Z,6.48
2022-11-06T03:12:02.554Z,6.28
2022-11-06T03:17:34.221Z,6.32
2022-11-06T03:23:06.209Z,6.43
2022-11-06T03:28:37.645Z,6.32
2022-11-06T03:34:09.665Z,6.34
2022-11-06T03:39:41.395Z,6.33
2022-11-06T03:45:12.872Z,6.05
2022-11-06T03:50:44.581Z,6.18
2022-11-06T03:56:16.306Z,6.17
2022-11-06T04:01:48.351Z,6.03
2022-11-06T04:07:19.822Z,6.09
2022-11-06T04:12:58.047Z,5.93
2022-11-06T04:18:29.584Z,5.94
2022-11-06T04:24:01.504Z,6.02
2022-11-06T04:29:34.205Z,6.28
2022-11-06T04:35:04.731Z,6.27
2022-11-06T04:40:36.654Z,6.2
2022-11-06T04:46:08.282Z,5.74
2022-11-06T04:51:40.230Z,5.64
2022-11-06T04:57:11.626Z,5.64
2022-11-06T05:02:43.350Z,5.48
2022-11-06T05:08:15.389Z,5.47
2022-11-06T05:13:51.306Z,5.8
2022-11-06T05:19:22.913Z,5.87
2022-11-06T05:24:54.718Z,5.83
2022-11-06T05:30:26.448Z,5.68
2022-11-06T05:35:58.331Z,5.95
2022-11-06T05:41:29.784Z,5.95
2022-11-06T05:47:01.529Z,5.91
2022-11-06T05:52:33.371Z,5.93
2022-11-06T05:58:04.939Z,5.93
2022-11-06T06:03:36.683Z,5.84
2022-11-06T06:09:08.559Z,5.85
2022-11-06T06:14:47.871Z,5.65
2022-11-06T06:20:16.219Z,5.56
2022-11-06T06:25:47.948Z,5.46
2022-11-06T06:31:19.652Z,5.54
2022-11-06T06:36:51.370Z,5.44
2022-11-06T06:42:26.069Z,5.31
2022-11-06T06:47:54.798Z,5.37
2022-11-06T06:53:26.656Z,5.27
2022-11-06T06:58:58.300Z,4.74
2022-11-06T07:04:29.976Z,4.96
2022-11-06T07:10:01.712Z,4.98
2022-11-06T07:15:37.815Z,4.71
2022-11-06T07:21:09.548Z,4.6
2022-11-06T07:26:41.275Z,4.68
2022-11-06T07:32:12.991Z,4.95
2022-11-06T07:37:44.780Z,5.0
2022-11-06T07:43:16.427Z,5.01
2022-11-06T07:48:48.129Z,5.11
2022-11-06T07:54:19.840Z,5.12
2022-11-06T07:59:51.639Z,5.5
2022-11-06T08:05:23.874Z,5.68
2022-11-06T08:10:55.049Z,5.61
2022-11-06T08:16:31.120Z,5.77
2022-11-06T08:22:02.843Z,5.76
2022-11-06T08:27:34.829Z,5.97
2022-11-06T08:33:06.302Z,6.08
2022-11-06T08:38:38.026Z,6.46
2022-11-06T08:44:09.764Z,6.65
2022-11-06T08:49:41.482Z,6.93
2022-11-06T08:55:13.339Z,7.26
2022-11-06T09:00:45.012Z,7.4
2022-11-06T09:06:16.725Z,7.43
2022-11-06T09:11:48.520Z,7.67
2022-11-06T09:17:26.613Z,8.31
2022-11-06T09:22:58.374Z,7.93
2022-11-06T09:28:29.946Z,8.08
2022-11-06T09:34:01.654Z,8.76
2022-11-06T09:39:33.395Z,8.79
2022-11-06T09:45:05.151Z,9.11
2022-11-06T09:50:36.838Z,9.6
2022-11-06T09:56:08.753Z,9.77
2022-11-06T10:01:40.390Z,9.47
2022-11-06T10:07:12.038Z,10.0
2022-11-06T10:12:43.761Z,10.01
2022-11-06T10:18:19.866Z,10.4
2022-11-06T10:23:51.594Z,10.07
2022-11-06T10:29:23.336Z,10.57
2022-11-06T10:34:55.059Z,10.82
2022-11-06T10:40:26.750Z,10.62
2022-11-06T10:45:58.520Z,10.7
2022-11-06T10:51:30.237Z,10.83
2022-11-06T10:57:01.939Z,10.7
2022-11-06T11:02:33.742Z,10.78
2022-11-06T11:08:05.471Z,10.7
2022-11-06T11:13:37.187Z,10.66
2022-11-06T11:19:13.263Z,10.79
2022-11-06T11:24:45.002Z,10.99
2022-11-06T11:30:16.886Z,10.99
2022-11-06T11:35:48.447Z,11.34
2022-11-06T11:41:20.446Z,11.17
2022-11-06T11:46:52.014Z,11.55
2022-11-06T11:52:23.770Z,11.5
2022-11-06T11:57:55.498Z,11.7
2022-11-06T12:03:27.104Z,11.96
2022-11-06T12:08:58.795Z,12.03
2022-11-06T12:14:30.490Z,12.05
2022-11-06T12:20:06.633Z,12.16
2022-11-06T12:25:38.508Z,12.2
2022-11-06T12:31:10.059Z,12.11
2022-11-06T12:36:41.878Z,12.26
2022-11-06T12:42:13.566Z,12.16
2022-11-06T12:47:45.342Z,12.2
2022-11-06T12:53:17.035Z,12.44
2022-11-06T12:58:48.755Z,12.32
2022-11-06T13:04:20.480Z,12.43
2022-11-06T13:09:52.242Z,12.16
2022-11-06T13:15:24.056Z,12.17
2022-11-06T13:21:00.036Z,12.53
2022-11-06T13:26:31.757Z,12.29
2022-11-06T13:32:03.495Z,12.37
2022-11-06T13:37:35.230Z,12.45
2022-11-06T13:43:06.941Z,12.06
2022-11-06T13:48:38.871Z,12.54
2022-11-06T13:54:10.417Z,12.63
2022-11-06T13:59:42.123Z,12.65
2022-11-06T14:05:13.843Z,12.44
2022-11-06T14:10:45.546Z,12.45
2022-11-06T14:16:17.420Z,12.7
2022-11-06T14:21:55.386Z,12.53
2022-11-06T14:27:27.118Z,12.25
2022-11-06T14:32:58.886Z,12.48
2022-11-06T14:38:30.663Z,12.29
2022-11-06T14:44:02.380Z,12.26
2022-11-06T14:49:34.132Z,12.04
2022-11-06T14:55:06.057Z,11.87
2022-11-06T15:00:37.543Z,11.72
2022-11-06T15:06:09.264Z,11.71
2022-11-06T15:11:45.038Z,11.77
2022-11-06T15:17:12.851Z,11.82
2022-11-06T15:22:48.810Z,11.87
2022-11-06T15:28:20.652Z,11.71
2022-11-06T15:33:55.616Z,11.57
2022-11-06T15:39:24.027Z,11.55
2022-11-06T15:44:55.751Z,11.33
2022-11-06T15:50:27.447Z,11.07
2022-11-06T15:55:59.218Z,11.04
2022-11-06T16:01:31.015Z,10.94
2022-11-06T16:07:02.692Z,11.1
2022-11-06T16:12:34.419Z,11.26
2022-11-06T16:18:06.186Z,11.36
2022-11-06T16:23:42.292Z,11.23
2022-11-06T16:29:14.133Z,11.08
2022-11-06T16:34:45.840Z,11.11
2022-11-06T16:40:17.551Z,11.05
2022-11-06T16:45:49.321Z,10.89
2022-11-06T16:51:21.040Z,10.91
2022-11-06T16:56:52.772Z,10.91
2022-11-06T17:02:24.726Z,10.81
2022-11-06T17:07:56.280Z,10.75
2022-11-06T17:13:27.992Z,10.75
2022-11-06T17:18:59.803Z,10.94
2022-11-06T17:24:38.263Z,11.0
2022-11-06T17:30:09.554Z,11.1
2022-11-06T17:35:41.319Z,11.06
2022-11-06T17:41:12.998Z,11.13
2022-11-06T17:46:44.729Z,10.85
2022-11-06T17:52:16.461Z,11.16
2022-11-06T17:57:48.316Z,11.22
2022-11-06T18:03:20.058Z,10.88
2022-11-06T18:08:51.579Z,11.07
2022-11-06T18:14:23.307Z,11.18
2022-11-06T18:19:55.034Z,10.98
2022-11-06T18:25:31.284Z,11.26
2022-11-06T18:31:02.902Z,11.3
2022-11-06T18:36:34.910Z,11.23
2022-11-06T18:42:06.300Z,11.08
2022-11-06T18:47:38.015Z,11.03
2022-11-06T18:53:09.799Z,10.8
2022-11-06T18:58:41.507Z,10.95
2022-11-06T19:04:13.310Z,10.89
2022-11-06T19:09:45.119Z,10.97
2022-11-06T19:15:16.855Z,10.94
2022-11-06T19:20:48.455Z,11.12
2022-11-06T19:26:30.893Z,11.15
2022-11-06T19:31:56.208Z,11.27
2022-11-06T19:37:27.967Z,11.08
2022-11-06T19:42:59.723Z,11.02
2022-11-06T19:48:31.826Z,10.92
2022-11-06T19:54:03.250Z,10.89
2022-11-06T19:59:34.875Z,10.83
2022-11-06T20:05:06.678Z,10.9
2022-11-06T20:10:38.619Z,11.11
2022-11-06T20:16:10.170Z,10.92
2022-11-06T20:21:41.959Z,10.83
2022-11-06T20:27:18.049Z,10.79
2022-11-06T20:32:49.903Z,10.8
2022-11-06T20:38:21.798Z,10.9
2022-11-06T20:43:53.176Z,10.9
2022-11-06T20:49:24.936Z,10.78
2022-11-06T20:54:56.819Z,10.96
2022-11-06T21:00:28.379Z,10.83
2022-11-06T21:06:00.101Z,10.91
2022-11-06T21:11:31.955Z,10.77
2022-11-06T21:17:03.594Z,10.74
2022-11-06T21:22:35.436Z,10.92
2022-11-06T21:28:11.494Z,10.75
2022-11-06T21:33:43.241Z,10.85
2022-11-06T21:39:15.121Z,10.98
2022-11-06T21:44:46.686Z,11.04
2022-11-06T21:50:18.477Z,11.08
2022-11-06T21:55:53.760Z,11.07
2022-11-06T22:01:22.201Z,11.32
2022-11-06T22:06:54.562Z,11.37
2022-11-06T22:12:26.257Z,11.41
2022-11-06T22:17:58.038Z,11.62
2022-11-06T22:23:29.753Z,11.75
2022-11-06T22:29:05.805Z,11.7
2022-11-06T22:34:37.691Z,11.62
2022-11-06T22:40:09.283Z,11.74
2022-11-06T22:45:41.421Z,11.65
2022-11-06T22:51:12.802Z,11.51
2022-11-06T22:56:44.642Z,11.41
2022-11-06T23:02:16.386Z,11.45
2022-11-06T23:07:48.133Z,11.41
2022-11-06T23:13:19.732Z,11.39
2022-11-06T23:18:51.365Z,11.33
2022-11-06T23:24:23.126Z,11.26
2022-11-06T23:29:59.305Z,11.28
2022-11-06T23:35:32.564Z,11.36
2022-11-06T23:41:02.804Z,11.24
2022-11-06T23:46:34.531Z,11.34
2022-11-06T23:52:06.097Z,11.38
2022-11-06T23:57:37.817Z,11.33
